createdAt,value
2018-05-03T00:00:34.268Z,5.30
2018-05-03T00:01:34.444Z,6.40
2018-05-03T00:02:34.617Z,4.90
2018-05-03T00:03:34.795Z,5.30
2018-05-03T00:04:34.975Z,5.30
2018-05-03T00:05:35.150Z,6.90
2018-05-03T00:06:35.332Z,5.10
2018-05-03T00:07:35.512Z,5.20
2018-05-03T00:08:35.684Z,5.20
2018-05-03T00:09:35.859Z,5.30
2018-05-03T00:10:36.037Z,5.60
2018-05-03T00:11:36.217Z,5.80
2018-05-03T00:12:36.389Z,5.10
2018-05-03T00:13:36.569Z,5.20
2018-05-03T00:14:36.868Z,5.20
2018-05-03T00:15:36.848Z,6.60
2018-05-03T00:16:40.225Z,5.40
2018-05-03T00:17:37.263Z,6.00
2018-05-03T00:18:37.699Z,5.70
2018-05-03T00:19:37.537Z,5.70
2018-05-03T00:20:37.720Z,5.50
2018-05-03T00:21:37.902Z,5.30
2018-05-03T00:22:38.084Z,5.20
2018-05-03T00:23:38.266Z,5.30
2018-05-03T00:24:38.461Z,5.10
2018-05-03T00:25:38.638Z,5.00
2018-05-03T00:26:38.819Z,5.90
2018-05-03T00:27:38.995Z,5.70
2018-05-03T00:28:39.173Z,5.50
2018-05-03T00:29:39.356Z,6.70
2018-05-03T00:30:39.537Z,5.50
2018-05-03T00:31:39.723Z,6.30
2018-05-03T00:32:39.899Z,5.80
2018-05-03T00:33:40.073Z,6.20
2018-05-03T00:34:40.258Z,5.50
2018-05-03T00:35:40.434Z,7.00
2018-05-03T00:36:40.621Z,5.40
2018-05-03T00:37:40.881Z,5.40
2018-05-03T00:38:40.976Z,5.50
2018-05-03T00:39:41.137Z,5.60
2018-05-03T00:40:41.311Z,5.90
2018-05-03T00:41:41.488Z,5.40
2018-05-03T00:42:41.663Z,5.60
2018-05-03T00:43:41.839Z,5.60
2018-05-03T00:44:42.025Z,5.60
2018-05-03T00:45:42.206Z,5.60
2018-05-03T00:46:42.384Z,5.40
2018-05-03T00:47:42.563Z,5.70
2018-05-03T00:48:42.745Z,5.90
2018-05-03T00:49:42.924Z,5.60
2018-05-03T00:50:43.102Z,6.70
2018-05-03T00:51:43.281Z,5.90
2018-05-03T00:52:43.457Z,5.80
2018-05-03T00:53:43.636Z,4.80
2018-05-03T00:54:43.808Z,5.00
2018-05-03T00:55:43.988Z,5.50
2018-05-03T00:56:44.163Z,5.20
2018-05-03T00:57:44.341Z,5.20
2018-05-03T00:58:44.522Z,5.30
2018-05-03T00:59:44.700Z,5.50
2018-05-03T01:00:44.881Z,5.10
2018-05-03T01:01:45.062Z,5.30
2018-05-03T01:02:45.238Z,5.20
2018-05-03T01:03:45.413Z,5.10
2018-05-03T01:04:45.589Z,6.20
2018-05-03T01:05:45.772Z,5.30
2018-05-03T01:06:45.958Z,5.00
2018-05-03T01:07:46.134Z,4.70
2018-05-03T01:08:46.309Z,5.00
2018-05-03T01:09:46.487Z,5.10
2018-05-03T01:10:46.666Z,5.10
2018-05-03T01:11:46.844Z,4.90
2018-05-03T01:12:47.018Z,5.20
2018-05-03T01:13:47.220Z,5.20
2018-05-03T01:14:47.404Z,5.20
2018-05-03T01:15:47.576Z,5.20
2018-05-03T01:16:47.755Z,5.70
2018-05-03T01:17:47.942Z,5.20
2018-05-03T01:18:48.123Z,5.10
2018-05-03T01:19:48.303Z,5.10
2018-05-03T01:20:48.475Z,5.00
2018-05-03T01:21:48.653Z,6.40
2018-05-03T01:22:48.828Z,5.00
2018-05-03T01:23:48.998Z,5.10
2018-05-03T01:24:49.169Z,5.20
2018-05-03T01:25:49.350Z,6.40
2018-05-03T01:26:49.530Z,5.00
2018-05-03T01:27:49.711Z,5.10
2018-05-03T01:28:49.891Z,5.10
2018-05-03T01:29:50.072Z,5.10
2018-05-03T01:30:50.254Z,4.60
2018-05-03T01:31:50.423Z,4.90
2018-05-03T01:32:50.601Z,4.80
2018-05-03T01:33:50.778Z,5.00
2018-05-03T01:34:50.957Z,5.00
2018-05-03T01:35:51.137Z,5.10
2018-05-03T01:36:51.321Z,5.00
2018-05-03T01:37:51.504Z,5.40
2018-05-03T01:38:51.684Z,5.70
2018-05-03T01:39:51.855Z,4.90
2018-05-03T01:40:52.033Z,5.20
2018-05-03T01:41:52.210Z,5.00
2018-05-03T01:42:52.401Z,5.90
2018-05-03T01:43:52.577Z,4.80
2018-05-03T01:44:52.755Z,5.20
2018-05-03T01:45:52.933Z,6.00
2018-05-03T01:46:53.110Z,5.00
2018-05-03T01:47:53.298Z,5.10
2018-05-03T01:48:53.465Z,5.80
2018-05-03T01:49:53.646Z,5.10
2018-05-03T01:50:53.816Z,5.80
2018-05-03T01:51:54.004Z,5.40
2018-05-03T01:52:54.182Z,5.60
2018-05-03T01:53:54.352Z,5.20
2018-05-03T01:54:54.529Z,5.10
2018-05-03T01:55:54.705Z,5.80
2018-05-03T01:56:54.879Z,5.20
2018-05-03T01:57:55.053Z,5.50
2018-05-03T01:58:55.228Z,5.00
2018-05-03T01:59:55.409Z,5.40
2018-05-03T02:00:55.586Z,5.20
2018-05-03T02:01:55.766Z,4.90
2018-05-03T02:02:55.948Z,5.50
2018-05-03T02:03:56.126Z,6.00
2018-05-03T02:04:56.304Z,5.10
2018-05-03T02:05:56.486Z,5.40
2018-05-03T02:06:56.667Z,5.40
2018-05-03T02:07:56.841Z,5.20
2018-05-03T02:08:57.024Z,6.70
2018-05-03T02:09:57.210Z,5.70
2018-05-03T02:10:57.391Z,5.70
2018-05-03T02:11:57.573Z,5.30
2018-05-03T02:12:57.759Z,5.50
2018-05-03T02:13:57.936Z,5.70
2018-05-03T02:14:58.156Z,5.20
2018-05-03T02:15:58.239Z,5.30
2018-05-03T02:16:58.393Z,5.50
2018-05-03T02:17:58.578Z,5.50
2018-05-03T02:18:58.753Z,5.40
2018-05-03T02:19:58.945Z,5.30
2018-05-03T02:20:59.123Z,5.40
2018-05-03T02:21:59.301Z,4.90
2018-05-03T02:22:59.483Z,5.20
2018-05-03T02:23:59.664Z,5.40
2018-05-03T02:24:59.845Z,5.10
2018-05-03T02:26:00.022Z,5.30
2018-05-03T02:27:00.188Z,5.30
2018-05-03T02:28:00.368Z,5.40
2018-05-03T02:29:00.543Z,5.00
2018-05-03T02:30:00.726Z,6.10
2018-05-03T02:31:00.896Z,5.30
2018-05-03T02:32:01.075Z,5.10
2018-05-03T02:33:01.255Z,5.60
2018-05-03T02:34:01.432Z,5.80
2018-05-03T02:35:01.608Z,5.30
2018-05-03T02:36:01.788Z,5.60
2018-05-03T02:37:01.966Z,4.70
2018-05-03T02:38:02.135Z,5.40
2018-05-03T02:39:02.313Z,5.30
2018-05-03T02:40:02.498Z,5.00
2018-05-03T02:41:02.677Z,5.00
2018-05-03T02:42:02.848Z,5.20
2018-05-03T02:43:03.025Z,5.50
2018-05-03T02:44:03.209Z,5.60
2018-05-03T02:45:03.395Z,5.50
2018-05-03T02:46:03.577Z,6.00
2018-05-03T02:47:03.747Z,5.10
2018-05-03T02:48:03.920Z,5.90
2018-05-03T02:49:04.100Z,5.10
2018-05-03T02:50:04.272Z,5.50
2018-05-03T02:51:04.457Z,5.90
2018-05-03T02:52:04.643Z,5.20
2018-05-03T02:53:04.812Z,5.30
2018-05-03T02:54:04.992Z,5.90
2018-05-03T02:55:05.172Z,5.00
2018-05-03T02:56:05.351Z,5.40
2018-05-03T02:57:05.527Z,5.20
2018-05-03T02:58:05.708Z,6.80
2018-05-03T02:59:05.882Z,5.20
2018-05-03T03:00:06.065Z,5.20
2018-05-03T03:01:06.254Z,5.20
2018-05-03T03:02:06.430Z,5.20
2018-05-03T03:03:06.610Z,5.10
2018-05-03T03:04:06.795Z,5.30
2018-05-03T03:05:06.969Z,5.20
2018-05-03T03:06:07.142Z,5.40
2018-05-03T03:07:07.317Z,6.60
2018-05-03T03:08:07.497Z,5.60
2018-05-03T03:09:07.676Z,5.40
2018-05-03T03:10:07.856Z,5.00
2018-05-03T03:11:08.043Z,5.30
2018-05-03T03:12:08.225Z,5.30
2018-05-03T03:13:08.405Z,5.20
2018-05-03T03:14:08.588Z,5.40
2018-05-03T03:15:08.768Z,5.10
2018-05-03T03:16:08.945Z,5.30
2018-05-03T03:17:09.129Z,5.30
2018-05-03T03:18:09.312Z,5.10
2018-05-03T03:19:09.496Z,5.50
2018-05-03T03:20:09.677Z,5.70
2018-05-03T03:21:09.853Z,5.50
2018-05-03T03:22:10.049Z,5.30
2018-05-03T03:23:10.226Z,5.30
2018-05-03T03:24:10.404Z,5.40
2018-05-03T03:25:10.585Z,5.10
2018-05-03T03:26:10.762Z,5.50
2018-05-03T03:27:10.955Z,5.30
2018-05-03T03:28:11.125Z,5.30
2018-05-03T03:29:11.303Z,5.30
2018-05-03T03:30:11.482Z,5.40
2018-05-03T03:31:11.660Z,6.10
2018-05-03T03:32:11.836Z,5.70
2018-05-03T03:33:12.013Z,5.40
2018-05-03T03:34:12.191Z,5.60
2018-05-03T03:35:12.368Z,5.50
2018-05-03T03:36:12.549Z,5.70
2018-05-03T03:37:12.727Z,5.90
2018-05-03T03:38:12.906Z,5.60
2018-05-03T03:39:13.086Z,5.40
2018-05-03T03:40:16.840Z,5.70
2018-05-03T03:41:15.535Z,5.60
2018-05-03T03:42:17.211Z,5.50
2018-05-03T03:43:15.462Z,6.20
2018-05-03T03:44:15.471Z,5.20
2018-05-03T03:45:16.578Z,5.60
2018-05-03T03:46:19.079Z,6.00
2018-05-03T03:47:17.567Z,5.90
2018-05-03T03:48:15.350Z,5.50
2018-05-03T03:49:14.970Z,5.70
2018-05-03T03:50:15.897Z,6.40
2018-05-03T03:51:15.194Z,6.50
2018-05-03T03:52:15.371Z,6.30
2018-05-03T03:53:15.617Z,5.80
2018-05-03T03:54:15.726Z,5.50
2018-05-03T03:55:15.902Z,5.70
2018-05-03T03:56:16.087Z,6.00
2018-05-03T03:57:16.259Z,6.20
2018-05-03T03:58:16.436Z,5.60
2018-05-03T03:59:16.612Z,6.70
2018-05-03T04:00:16.797Z,6.20
2018-05-03T04:01:16.971Z,5.60
2018-05-03T04:02:17.149Z,5.20
2018-05-03T04:03:17.326Z,5.30
2018-05-03T04:04:17.509Z,5.60
2018-05-03T04:05:17.689Z,6.50
2018-05-03T04:06:17.869Z,5.80
2018-05-03T04:07:18.057Z,5.50
2018-05-03T04:08:18.221Z,5.50
2018-05-03T04:09:18.448Z,5.60
2018-05-03T04:10:18.583Z,5.30
2018-05-03T04:11:18.750Z,5.20
2018-05-03T04:12:19.056Z,5.60
2018-05-03T04:13:19.240Z,5.50
2018-05-03T04:14:19.167Z,5.30
2018-05-03T04:15:19.343Z,5.40
2018-05-03T04:16:19.542Z,5.30
2018-05-03T04:17:19.740Z,5.90
2018-05-03T04:18:19.908Z,5.60
2018-05-03T04:19:20.081Z,5.40
2018-05-03T04:20:20.260Z,5.50
2018-05-03T04:21:20.467Z,5.40
2018-05-03T04:22:20.564Z,5.10
2018-05-03T04:23:20.725Z,5.70
2018-05-03T04:24:20.897Z,5.30
2018-05-03T04:25:21.075Z,5.20
2018-05-03T04:26:21.251Z,6.50
2018-05-03T04:27:21.475Z,6.30
2018-05-03T04:28:21.542Z,5.30
2018-05-03T04:29:21.721Z,5.00
2018-05-03T04:30:21.909Z,6.40
2018-05-03T04:31:22.105Z,6.10
2018-05-03T04:32:22.304Z,6.20
2018-05-03T04:33:22.482Z,5.60
2018-05-03T04:34:22.667Z,6.10
2018-05-03T04:35:22.879Z,5.80
2018-05-03T04:36:23.053Z,5.40
2018-05-03T04:37:23.236Z,5.30
2018-05-03T04:38:25.101Z,5.50
2018-05-03T04:39:25.648Z,5.40
2018-05-03T04:40:23.979Z,5.80
2018-05-03T04:41:24.442Z,5.70
2018-05-03T04:42:24.953Z,6.60
2018-05-03T04:43:27.901Z,6.80
2018-05-03T04:44:24.490Z,6.20
2018-05-03T04:45:24.683Z,5.40
2018-05-03T04:46:24.876Z,5.80
2018-05-03T04:47:25.156Z,5.90
2018-05-03T04:48:25.293Z,6.00
2018-05-03T04:49:25.413Z,5.90
2018-05-03T04:50:25.593Z,5.60
2018-05-03T04:51:25.767Z,5.70
2018-05-03T04:52:25.953Z,5.70
2018-05-03T04:53:26.134Z,5.50
2018-05-03T04:54:26.310Z,5.50
2018-05-03T04:55:26.491Z,5.90
2018-05-03T04:56:26.667Z,5.90
2018-05-03T04:57:26.865Z,5.90
2018-05-03T04:58:27.039Z,6.10
2018-05-03T04:59:27.221Z,5.50
2018-05-03T05:00:27.407Z,5.30
2018-05-03T05:01:27.596Z,5.50
2018-05-03T05:02:27.807Z,5.80
2018-05-03T05:03:28.061Z,6.00
2018-05-03T05:04:28.146Z,6.10
2018-05-03T05:05:28.370Z,5.90
2018-05-03T05:06:28.464Z,6.20
2018-05-03T05:07:28.671Z,6.10
2018-05-03T05:08:28.886Z,5.90
2018-05-03T05:09:29.079Z,5.80
2018-05-03T05:10:29.353Z,6.40
2018-05-03T05:11:29.469Z,5.80
2018-05-03T05:12:29.596Z,5.90
2018-05-03T05:13:29.715Z,5.90
2018-05-03T05:14:29.841Z,5.50
2018-05-03T05:15:29.969Z,5.30
2018-05-03T05:16:30.090Z,5.20
2018-05-03T05:17:30.219Z,5.50
2018-05-03T05:18:30.393Z,5.70
2018-05-03T05:19:30.517Z,5.70
2018-05-03T05:20:30.631Z,5.50
2018-05-03T05:21:30.872Z,5.40
2018-05-03T05:22:30.974Z,5.90
2018-05-03T05:23:31.064Z,5.80
2018-05-03T05:24:31.833Z,5.30
2018-05-03T05:25:31.389Z,5.60
2018-05-03T05:26:31.577Z,5.90
2018-05-03T05:27:31.760Z,5.90
2018-05-03T05:28:31.937Z,6.10
2018-05-03T05:29:32.111Z,5.40
2018-05-03T05:30:32.291Z,5.70
2018-05-03T05:31:32.493Z,5.60
2018-05-03T05:32:32.675Z,5.40
2018-05-03T05:33:32.877Z,5.80
2018-05-03T05:34:33.050Z,6.30
2018-05-03T05:35:33.218Z,5.60
2018-05-03T05:36:33.403Z,6.20
2018-05-03T05:37:33.579Z,5.60
2018-05-03T05:38:33.840Z,5.80
2018-05-03T05:39:33.951Z,5.90
2018-05-03T05:40:34.122Z,5.60
2018-05-03T05:41:34.303Z,6.60
2018-05-03T05:42:34.471Z,5.90
2018-05-03T05:43:34.660Z,6.00
2018-05-03T05:44:34.841Z,6.30
2018-05-03T05:45:35.027Z,6.20
2018-05-03T05:46:35.196Z,5.30
2018-05-03T05:47:35.382Z,5.50
2018-05-03T05:48:35.620Z,5.70
2018-05-03T05:49:35.674Z,5.50
2018-05-03T05:50:35.850Z,5.70
2018-05-03T05:51:36.027Z,6.30
2018-05-03T05:52:36.203Z,6.10
2018-05-03T05:53:36.382Z,5.70
2018-05-03T05:54:36.566Z,5.90
2018-05-03T05:55:36.749Z,6.40
2018-05-03T05:56:36.943Z,6.30
2018-05-03T05:57:37.130Z,5.90
2018-05-03T05:58:40.473Z,5.50
2018-05-03T05:59:39.717Z,6.60
2018-05-03T06:00:40.006Z,5.60
2018-05-03T06:01:39.210Z,6.50
2018-05-03T06:02:37.949Z,6.40
2018-05-03T06:03:39.614Z,6.30
2018-05-03T06:04:41.031Z,6.30
2018-05-03T06:05:42.831Z,6.30
2018-05-03T06:06:39.511Z,6.00
2018-05-03T06:07:38.840Z,6.00
2018-05-03T06:08:39.017Z,6.20
2018-05-03T06:09:39.195Z,8.30
2018-05-03T06:10:39.375Z,6.30
2018-05-03T06:11:39.557Z,5.90
2018-05-03T06:12:39.726Z,6.80
2018-05-03T06:13:39.908Z,6.80
2018-05-03T06:14:40.091Z,6.00
2018-05-03T06:15:40.278Z,5.80
2018-05-03T06:16:40.461Z,6.30
2018-05-03T06:17:40.645Z,6.20
2018-05-03T06:18:40.833Z,5.70
2018-05-03T06:19:41.019Z,5.70
2018-05-03T06:20:41.196Z,5.80
2018-05-03T06:21:41.377Z,5.90
2018-05-03T06:22:41.549Z,5.80
2018-05-03T06:23:41.727Z,5.90
2018-05-03T06:24:41.908Z,5.50
2018-05-03T06:25:42.081Z,5.00
2018-05-03T06:26:42.261Z,5.30
2018-05-03T06:27:42.438Z,7.00
2018-05-03T06:28:42.624Z,5.10
2018-05-03T06:29:42.820Z,7.10
2018-05-03T06:30:42.999Z,5.90
2018-05-03T06:31:43.177Z,5.40
2018-05-03T06:32:43.355Z,5.60
2018-05-03T06:33:43.538Z,5.10
2018-05-03T06:34:43.719Z,6.20
2018-05-03T06:35:43.897Z,6.80
2018-05-03T06:36:44.078Z,7.20
2018-05-03T06:37:44.271Z,7.70
2018-05-03T06:38:44.494Z,5.60
2018-05-03T06:39:44.645Z,5.80
2018-05-03T06:40:44.820Z,6.50
2018-05-03T06:41:45.001Z,5.40
2018-05-03T06:42:45.182Z,5.50
2018-05-03T06:43:45.371Z,6.30
2018-05-03T06:44:45.830Z,5.00
2018-05-03T06:45:45.874Z,4.70
2018-05-03T06:46:46.200Z,4.40
2018-05-03T06:47:46.136Z,4.10
2018-05-03T06:48:46.322Z,4.10
2018-05-03T06:49:46.521Z,4.00
2018-05-03T06:50:46.705Z,4.10
2018-05-03T06:51:46.896Z,4.60
2018-05-03T06:52:47.090Z,4.00
2018-05-03T06:53:47.264Z,3.50
2018-05-03T06:54:47.579Z,4.30
2018-05-03T06:55:47.651Z,4.30
2018-05-03T06:56:47.837Z,3.50
2018-05-03T06:57:48.023Z,4.10
2018-05-03T06:58:48.205Z,3.50
2018-05-03T06:59:48.393Z,3.70
2018-05-03T07:00:48.588Z,4.00
2018-05-03T07:01:48.776Z,3.70
2018-05-03T07:02:48.989Z,3.80
2018-05-03T07:03:49.162Z,5.90
2018-05-03T07:04:49.349Z,3.90
2018-05-03T07:05:49.546Z,6.00
2018-05-03T07:06:49.739Z,3.70
2018-05-03T07:07:49.930Z,4.00
2018-05-03T07:08:50.108Z,4.10
2018-05-03T07:09:50.332Z,3.60
2018-05-03T07:10:50.483Z,3.70
2018-05-03T07:11:50.682Z,5.00
2018-05-03T07:12:50.874Z,4.50
2018-05-03T07:13:51.079Z,4.60
2018-05-03T07:14:51.375Z,5.50
2018-05-03T07:15:51.434Z,4.90
2018-05-03T07:16:51.623Z,7.50
2018-05-03T07:17:51.821Z,4.50
2018-05-03T07:18:52.037Z,4.00
2018-05-03T07:19:52.216Z,4.80
2018-05-03T07:20:52.446Z,5.20
2018-05-03T07:21:52.637Z,5.70
2018-05-03T07:22:52.825Z,5.10
2018-05-03T07:23:53.032Z,4.50
2018-05-03T07:24:53.210Z,6.00
2018-05-03T07:25:53.439Z,5.10
2018-05-03T07:26:53.656Z,6.70
2018-05-03T07:27:53.860Z,5.60
2018-05-03T07:28:54.091Z,6.20
2018-05-03T07:29:54.296Z,7.40
2018-05-03T07:30:54.473Z,6.50
2018-05-03T07:31:54.659Z,7.40
2018-05-03T07:32:55.116Z,7.10
2018-05-03T07:33:55.241Z,7.50
2018-05-03T07:34:55.386Z,7.80
2018-05-03T07:35:55.612Z,8.50
2018-05-03T07:36:55.804Z,7.70
2018-05-03T07:37:55.934Z,7.10
2018-05-03T07:38:56.237Z,6.70
2018-05-03T07:39:56.032Z,7.20
2018-05-03T07:40:56.495Z,6.90
2018-05-03T07:41:56.725Z,8.50
2018-05-03T07:42:56.866Z,6.70
2018-05-03T07:43:56.931Z,9.20
2018-05-03T07:44:57.515Z,7.40
2018-05-03T07:45:57.418Z,6.80
2018-05-03T07:46:57.392Z,6.80
2018-05-03T07:47:58.490Z,7.20
2018-05-03T07:48:58.107Z,6.60
2018-05-03T07:49:58.279Z,7.60
2018-05-03T07:50:58.287Z,6.80
2018-05-03T07:51:58.345Z,9.80
2018-05-03T07:52:58.670Z,8.40
2018-05-03T07:53:58.632Z,7.60
2018-05-03T07:54:58.932Z,7.50
2018-05-03T07:55:59.005Z,7.20
2018-05-03T07:56:59.102Z,7.80
2018-05-03T07:57:59.308Z,7.70
2018-05-03T07:58:59.268Z,8.00
2018-05-03T07:59:59.462Z,7.70
2018-05-03T08:00:59.648Z,9.80
2018-05-03T08:01:59.845Z,8.80
2018-05-03T08:03:00.033Z,10.00
2018-05-03T08:04:00.220Z,10.20
2018-05-03T08:05:00.397Z,10.20
2018-05-03T08:06:00.580Z,12.20
2018-05-03T08:07:00.769Z,12.70
2018-05-03T08:08:00.967Z,11.30
2018-05-03T08:09:01.148Z,11.50
2018-05-03T08:10:01.326Z,11.30
2018-05-03T08:11:02.782Z,11.40
2018-05-03T08:12:01.716Z,12.60
2018-05-03T08:13:01.764Z,11.80
2018-05-03T08:14:03.296Z,11.80
2018-05-03T08:15:03.450Z,12.00
2018-05-03T08:16:02.755Z,11.20
2018-05-03T08:17:02.626Z,11.60
2018-05-03T08:18:02.843Z,11.70
2018-05-03T08:19:02.891Z,10.90
2018-05-03T08:20:03.157Z,11.20
2018-05-03T08:21:03.269Z,11.10
2018-05-03T08:22:03.440Z,10.90
2018-05-03T08:23:03.702Z,11.30
2018-05-03T08:24:04.060Z,11.80
2018-05-03T08:25:03.909Z,11.20
2018-05-03T08:26:03.995Z,10.90
2018-05-03T08:27:04.322Z,11.50
2018-05-03T08:28:04.536Z,10.40
2018-05-03T08:29:04.620Z,11.90
2018-05-03T08:30:04.665Z,10.50
2018-05-03T08:31:04.652Z,9.60
2018-05-03T08:32:04.897Z,10.30
2018-05-03T08:33:05.057Z,9.80
2018-05-03T08:34:05.233Z,9.90
2018-05-03T08:35:05.411Z,11.50
2018-05-03T08:36:05.598Z,9.90
2018-05-03T08:37:05.795Z,10.40
2018-05-03T08:38:06.215Z,9.80
2018-05-03T08:39:07.533Z,9.50
2018-05-03T08:40:06.600Z,9.60
2018-05-03T08:41:06.567Z,9.70
2018-05-03T08:42:06.845Z,9.40
2018-05-03T08:43:06.917Z,9.40
2018-05-03T08:44:07.113Z,9.70
2018-05-03T08:45:07.283Z,9.40
2018-05-03T08:46:07.462Z,8.90
2018-05-03T08:47:07.651Z,8.50
2018-05-03T08:48:07.847Z,8.90
2018-05-03T08:49:08.054Z,8.10
2018-05-03T08:50:08.231Z,8.00
2018-05-03T08:51:08.423Z,7.80
2018-05-03T08:52:08.597Z,7.80
2018-05-03T08:53:08.782Z,8.90
2018-05-03T08:54:08.971Z,7.60
2018-05-03T08:55:09.152Z,9.10
2018-05-03T08:56:09.330Z,9.00
2018-05-03T08:57:10.593Z,7.60
2018-05-03T08:58:09.683Z,7.50
2018-05-03T08:59:09.883Z,11.00
2018-05-03T09:00:10.054Z,9.30
2018-05-03T09:01:10.247Z,8.20
2018-05-03T09:02:11.102Z,8.40
2018-05-03T09:03:10.597Z,7.10
2018-05-03T09:04:10.894Z,7.90
2018-05-03T09:05:11.246Z,7.90
2018-05-03T09:06:11.641Z,7.70
2018-05-03T09:07:11.327Z,8.50
2018-05-03T09:08:11.516Z,9.50
2018-05-03T09:09:11.781Z,9.30
2018-05-03T09:10:12.023Z,8.50
2018-05-03T09:11:11.964Z,7.40
2018-05-03T09:12:12.154Z,6.30
2018-05-03T09:13:12.406Z,7.20
2018-05-03T09:14:12.468Z,7.20
2018-05-03T09:15:13.054Z,6.50
2018-05-03T09:16:13.224Z,6.60
2018-05-03T09:17:13.085Z,6.30
2018-05-03T09:18:13.720Z,6.10
2018-05-03T09:19:13.831Z,6.80
2018-05-03T09:20:14.085Z,6.50
2018-05-03T09:21:14.493Z,6.20
2018-05-03T09:22:14.951Z,5.80
2018-05-03T09:23:14.157Z,6.70
2018-05-03T09:24:14.513Z,5.70
2018-05-03T09:25:14.869Z,6.20
2018-05-03T09:26:15.496Z,6.60
2018-05-03T09:27:17.399Z,6.20
2018-05-03T09:28:15.454Z,6.60
2018-05-03T09:29:15.590Z,6.40
2018-05-03T09:30:17.449Z,6.10
2018-05-03T09:31:15.597Z,6.70
2018-05-03T09:32:15.797Z,5.70
2018-05-03T09:33:15.974Z,5.30
2018-05-03T09:34:16.211Z,6.40
2018-05-03T09:35:16.396Z,6.00
2018-05-03T09:36:16.602Z,6.50
2018-05-03T09:37:16.784Z,5.50
2018-05-03T09:38:16.981Z,6.00
2018-05-03T09:39:17.212Z,5.70
2018-05-03T09:40:17.368Z,6.00
2018-05-03T09:41:17.551Z,5.80
2018-05-03T09:42:17.784Z,6.40
2018-05-03T09:43:17.853Z,5.20
2018-05-03T09:44:18.041Z,5.70
2018-05-03T09:45:18.286Z,6.30
2018-05-03T09:46:18.359Z,6.30
2018-05-03T09:47:18.820Z,5.70
2018-05-03T09:48:18.768Z,7.00
2018-05-03T09:49:18.958Z,6.00
2018-05-03T09:50:19.141Z,6.30
2018-05-03T09:51:19.331Z,5.70
2018-05-03T09:52:19.533Z,5.60
2018-05-03T09:53:19.761Z,5.70
2018-05-03T09:54:19.964Z,6.10
2018-05-03T09:55:20.151Z,6.40
2018-05-03T09:56:20.354Z,5.60
2018-05-03T09:57:20.548Z,6.70
2018-05-03T09:58:20.731Z,7.90
2018-05-03T09:59:20.964Z,6.30
2018-05-03T10:00:21.166Z,6.70
2018-05-03T10:01:21.354Z,5.30
2018-05-03T10:02:21.538Z,5.90
2018-05-03T10:03:21.742Z,7.50
2018-05-03T10:04:21.920Z,6.10
2018-05-03T10:05:22.108Z,6.60
2018-05-03T10:06:22.314Z,6.90
2018-05-03T10:07:22.501Z,7.10
2018-05-03T10:08:22.696Z,7.20
2018-05-03T10:09:22.898Z,6.20
2018-05-03T10:10:23.238Z,6.10
2018-05-03T10:11:23.237Z,6.80
2018-05-03T10:12:23.424Z,6.00
2018-05-03T10:13:23.709Z,6.20
2018-05-03T10:14:23.813Z,6.20
2018-05-03T10:15:24.000Z,5.80
2018-05-03T10:16:24.186Z,5.70
2018-05-03T10:17:24.368Z,6.60
2018-05-03T10:18:24.546Z,6.20
2018-05-03T10:19:24.729Z,6.00
2018-05-03T10:20:24.921Z,6.10
2018-05-03T10:21:25.101Z,5.40
2018-05-03T10:22:25.287Z,5.80
2018-05-03T10:23:25.463Z,6.10
2018-05-03T10:24:25.650Z,5.30
2018-05-03T10:25:25.835Z,5.40
2018-05-03T10:26:26.014Z,4.90
2018-05-03T10:27:26.208Z,5.60
2018-05-03T10:28:26.380Z,6.10
2018-05-03T10:29:26.580Z,6.00
2018-05-03T10:30:26.782Z,7.00
2018-05-03T10:31:26.972Z,7.10
2018-05-03T10:32:27.452Z,7.30
2018-05-03T10:33:27.382Z,7.30
2018-05-03T10:34:27.557Z,7.20
2018-05-03T10:35:27.745Z,6.50
2018-05-03T10:36:27.932Z,6.40
2018-05-03T10:37:28.127Z,6.80
2018-05-03T10:38:28.344Z,7.10
2018-05-03T10:39:28.507Z,6.70
2018-05-03T10:40:28.687Z,9.60
2018-05-03T10:41:28.871Z,7.50
2018-05-03T10:42:29.050Z,8.10
2018-05-03T10:43:29.248Z,8.70
2018-05-03T10:44:29.447Z,7.40
2018-05-03T10:45:29.666Z,6.70
2018-05-03T10:46:29.851Z,7.60
2018-05-03T10:47:31.047Z,7.70
2018-05-03T10:48:30.227Z,9.50
2018-05-03T10:49:30.410Z,9.30
2018-05-03T10:50:30.595Z,9.20
2018-05-03T10:51:30.762Z,7.50
2018-05-03T10:52:30.963Z,7.60
2018-05-03T10:53:31.160Z,8.50
2018-05-03T10:54:31.367Z,7.80
2018-05-03T10:55:31.530Z,7.90
2018-05-03T10:56:31.709Z,8.20
2018-05-03T10:57:31.967Z,7.30
2018-05-03T10:58:32.285Z,7.40
2018-05-03T10:59:32.462Z,9.00
2018-05-03T11:00:32.566Z,7.90
2018-05-03T11:01:33.609Z,6.90
2018-05-03T11:02:32.938Z,6.80
2018-05-03T11:03:33.116Z,6.40
2018-05-03T11:04:33.301Z,6.60
2018-05-03T11:05:33.643Z,7.10
2018-05-03T11:06:33.709Z,6.40
2018-05-03T11:07:33.888Z,6.20
2018-05-03T11:08:34.043Z,6.90
2018-05-03T11:09:34.227Z,6.40
2018-05-03T11:10:34.409Z,7.40
2018-05-03T11:11:34.604Z,7.00
2018-05-03T11:12:34.774Z,7.80
2018-05-03T11:13:35.010Z,6.80
2018-05-03T11:14:35.280Z,6.40
2018-05-03T11:15:35.333Z,6.90
2018-05-03T11:16:35.602Z,6.40
2018-05-03T11:17:35.718Z,6.30
2018-05-03T11:18:36.026Z,6.60
2018-05-03T11:19:36.061Z,6.70
2018-05-03T11:20:36.333Z,5.80
2018-05-03T11:21:36.467Z,6.00
2018-05-03T11:22:37.077Z,6.20
2018-05-03T11:23:36.833Z,5.30
2018-05-03T11:24:37.045Z,5.10
2018-05-03T11:25:37.241Z,4.90
2018-05-03T11:26:37.646Z,5.50
2018-05-03T11:27:37.633Z,5.20
2018-05-03T11:28:37.675Z,4.80
2018-05-03T11:29:37.873Z,5.30
2018-05-03T11:30:38.071Z,5.10
2018-05-03T11:31:38.253Z,4.90
2018-05-03T11:32:38.448Z,5.10
2018-05-03T11:33:38.649Z,4.90
2018-05-03T11:34:38.820Z,4.70
2018-05-03T11:35:39.127Z,5.40
2018-05-03T11:36:39.213Z,5.00
2018-05-03T11:37:39.379Z,5.20
2018-05-03T11:38:39.572Z,5.40
2018-05-03T11:39:39.778Z,5.20
2018-05-03T11:40:39.978Z,5.60
2018-05-03T11:41:40.168Z,4.80
2018-05-03T11:42:40.496Z,4.90
2018-05-03T11:43:40.458Z,5.90
2018-05-03T11:44:40.766Z,4.00
2018-05-03T11:45:40.815Z,4.50
2018-05-03T11:46:41.013Z,6.10
2018-05-03T11:47:41.193Z,5.00
2018-05-03T11:48:41.411Z,4.90
2018-05-03T11:49:41.590Z,5.60
2018-05-03T11:50:41.787Z,4.20
2018-05-03T11:51:42.014Z,5.90
2018-05-03T11:52:43.019Z,4.30
2018-05-03T11:53:43.244Z,5.00
2018-05-03T11:54:42.610Z,4.60
2018-05-03T11:55:42.910Z,4.50
2018-05-03T11:56:42.950Z,4.20
2018-05-03T11:57:43.607Z,4.20
2018-05-03T11:58:43.583Z,4.70
2018-05-03T11:59:43.443Z,4.20
2018-05-03T12:00:43.617Z,5.60
2018-05-03T12:01:43.977Z,4.30
2018-05-03T12:02:44.043Z,4.30
2018-05-03T12:03:44.221Z,3.60
2018-05-03T12:04:44.432Z,4.10
2018-05-03T12:05:44.599Z,4.00
2018-05-03T12:06:44.815Z,4.60
2018-05-03T12:07:45.004Z,4.40
2018-05-03T12:08:45.185Z,4.60
2018-05-03T12:09:45.362Z,6.30
2018-05-03T12:10:45.550Z,4.80
2018-05-03T12:11:45.800Z,4.50
2018-05-03T12:12:46.332Z,4.40
2018-05-03T12:13:46.135Z,4.30
2018-05-03T12:14:46.335Z,4.00
2018-05-03T12:15:46.534Z,6.30
2018-05-03T12:16:46.724Z,4.60
2018-05-03T12:17:46.932Z,4.00
2018-05-03T12:18:47.118Z,4.30
2018-05-03T12:19:47.313Z,4.60
2018-05-03T12:20:47.500Z,4.20
2018-05-03T12:21:47.786Z,5.00
2018-05-03T12:22:47.825Z,5.40
2018-05-03T12:23:48.016Z,4.70
2018-05-03T12:24:48.197Z,4.60
2018-05-03T12:25:48.393Z,3.90
2018-05-03T12:26:48.566Z,4.20
2018-05-03T12:27:49.015Z,4.20
2018-05-03T12:28:48.864Z,4.50
2018-05-03T12:29:49.637Z,4.50
2018-05-03T12:30:51.210Z,4.40
2018-05-03T12:31:49.425Z,4.20
2018-05-03T12:32:49.604Z,4.40
2018-05-03T12:33:49.931Z,4.50
2018-05-03T12:34:49.915Z,4.30
2018-05-03T12:35:50.082Z,4.50
2018-05-03T12:36:50.275Z,5.30
2018-05-03T12:37:50.474Z,5.60
2018-05-03T12:38:50.665Z,4.20
2018-05-03T12:39:50.855Z,4.60
2018-05-03T12:40:51.051Z,5.50
2018-05-03T12:41:51.230Z,5.00
2018-05-03T12:42:51.464Z,4.80
2018-05-03T12:43:51.648Z,4.50
2018-05-03T12:44:51.843Z,4.60
2018-05-03T12:45:52.029Z,4.20
2018-05-03T12:46:52.215Z,4.30
2018-05-03T12:47:52.402Z,4.60
2018-05-03T12:48:52.590Z,4.10
2018-05-03T12:49:52.770Z,4.50
2018-05-03T12:50:53.022Z,4.90
2018-05-03T12:51:53.155Z,4.20
2018-05-03T12:52:53.276Z,3.90
2018-05-03T12:53:53.471Z,4.60
2018-05-03T12:54:53.668Z,4.60
2018-05-03T12:55:53.846Z,4.30
2018-05-03T12:56:54.035Z,4.40
2018-05-03T12:57:54.217Z,4.20
2018-05-03T12:58:54.445Z,4.50
2018-05-03T12:59:54.595Z,4.40
2018-05-03T13:00:54.792Z,5.30
2018-05-03T13:01:54.983Z,4.90
2018-05-03T13:02:55.167Z,6.10
2018-05-03T13:03:55.367Z,5.50
2018-05-03T13:04:55.687Z,5.70
2018-05-03T13:05:55.716Z,6.80
2018-05-03T13:06:55.875Z,8.20
2018-05-03T13:07:56.061Z,7.00
2018-05-03T13:08:56.249Z,5.70
2018-05-03T13:09:56.437Z,5.80
2018-05-03T13:10:56.615Z,5.60
2018-05-03T13:11:56.805Z,5.20
2018-05-03T13:12:56.994Z,5.20
2018-05-03T13:13:57.183Z,5.90
2018-05-03T13:14:57.390Z,5.40
2018-05-03T13:15:57.582Z,4.60
2018-05-03T13:16:57.788Z,4.50
2018-05-03T13:17:57.978Z,5.90
2018-05-03T13:18:58.159Z,5.90
2018-05-03T13:19:58.343Z,5.40